Time;durP1;ratioP1;P1;durP2;ratioP2;P2;SDS_P1;SDS_P2;PMS_P1;PMS_P2;Temp;Humidity;BMP_temperature;BMP_pressure;BME280_temperature;BME280_humidity;BME280_pressure;Samples;Min_cycle;Max_cycle;Signal;HPM_P1;HPM_P2
2024/04/09 00:00:32;;;;;;;31.45;6.20;;;;;;;19.74;47.54;97218.16;5479235;26;20003;-73
2024/04/09 00:02:58;;;;;;;27.25;5.50;;;;;;;19.67;48.32;97222.53;5485294;26;20348;-76
2024/04/09 00:05:26;;;;;;;26.63;6.20;;;;;;;19.61;48.50;97213.69;5486137;26;19998;-74
2024/04/09 00:07:51;;;;;;;34.95;6.70;;;;;;;19.56;48.86;97210.34;5456426;26;20022;-74
2024/04/09 00:10:19;;;;;;;32.05;6.13;;;;;;;19.42;49.65;97193.38;5476908;26;20350;-74
2024/04/09 00:12:44;;;;;;;22.20;5.80;;;;;;;19.32;50.06;97203.47;5445787;26;20068;-74
2024/04/09 00:15:12;;;;;;;30.45;5.97;;;;;;;19.26;50.39;97202.03;5486299;26;19994;-76
2024/04/09 00:17:44;;;;;;;23.27;5.22;;;;;;;19.19;50.35;97190.81;5487781;26;20002;-73
2024/04/09 00:20:17;;;;;;;32.92;5.90;;;;;;;19.18;50.64;97205.56;5464710;26;20071;-73
2024/04/09 00:22:45;;;;;;;25.52;5.65;;;;;;;19.08;51.05;97183.28;5479916;26;19998;-73
2024/04/09 00:25:12;;;;;;;28.25;6.00;;;;;;;19.09;50.54;97190.38;5449674;26;19995;-73
2024/04/09 00:27:39;;;;;;;24.95;5.90;;;;;;;19.00;51.05;97182.16;5482579;26;20002;-72
2024/04/09 00:30:05;;;;;;;20.08;5.75;;;;;;;19.02;51.46;97179.13;5485262;26;20068;-72
2024/04/09 00:32:30;;;;;;;22.13;5.85;;;;;;;19.01;51.76;97178.31;5479833;26;19999;-73
2024/04/09 00:34:55;;;;;;;23.40;5.72;;;;;;;18.97;51.26;97171.91;5482830;26;19998;-72
2024/04/09 00:37:22;;;;;;;26.20;6.03;;;;;;;18.96;50.93;97148.47;5448841;26;20003;-74
2024/04/09 00:39:48;;;;;;;26.45;5.88;;;;;;;19.10;50.52;97148.28;5449283;26;19994;-73
2024/04/09 00:42:13;;;;;;;37.58;7.00;;;;;;;19.19;49.59;97155.31;5487435;26;20357;-74
2024/04/09 00:44:38;;;;;;;33.75;6.60;;;;;;;19.27;49.32;97138.13;5485819;26;20074;-74
2024/04/09 00:47:04;;;;;;;27.77;6.40;;;;;;;19.43;48.55;97123.97;5480228;26;19999;-74
2024/04/09 00:49:31;;;;;;;28.30;6.15;;;;;;;19.64;48.48;97119.38;5464348;26;19998;-74
2024/04/09 00:51:56;;;;;;;28.33;6.28;;;;;;;19.82;48.41;97123.59;5467947;26;20013;-75
2024/04/09 00:54:22;;;;;;;29.10;6.15;;;;;;;19.92;47.61;97123.25;5448654;26;19999;-75
2024/04/09 00:56:49;;;;;;;28.63;6.22;;;;;;;19.99;47.56;97120.78;5485707;26;20082;-74
2024/04/09 00:59:15;;;;;;;26.38;5.97;;;;;;;20.09;47.66;97131.34;5454994;26;20072;-74
2024/04/09 01:01:42;;;;;;;28.60;5.95;;;;;;;20.17;47.16;97122.25;5439890;26;20082;-76
2024/04/09 01:04:07;;;;;;;29.33;6.05;;;;;;;20.25;46.66;97117.91;5479622;26;20007;-75
2024/04/09 01:06:33;;;;;;;29.77;6.82;;;;;;;20.29;46.64;97118.84;5479699;26;20013;-74
2024/04/09 01:08:59;;;;;;;31.00;6.75;;;;;;;20.24;46.70;97108.91;5453168;26;20042;-75
2024/04/09 01:11:25;;;;;;;23.05;5.80;;;;;;;20.33;45.74;97104.16;5486229;26;20466;-75
2024/04/09 01:13:50;;;;;;;28.27;6.18;;;;;;;20.34;45.39;97081.16;5479977;26;20013;-75
2024/04/09 01:16:16;;;;;;;35.58;6.32;;;;;;;20.56;45.10;97096.44;5487689;26;20013;-75
2024/04/09 01:18:41;;;;;;;28.35;6.40;;;;;;;20.59;45.70;97091.06;5487193;26;20005;-73
2024/04/09 01:21:08;;;;;;;30.80;6.63;;;;;;;20.60;45.36;97087.22;5484855;26;19998;-73
2024/04/09 01:23:33;;;;;;;33.00;6.18;;;;;;;20.71;45.44;97086.78;5479160;26;20009;-73
2024/04/09 01:25:59;;;;;;;28.35;6.32;;;;;;;20.74;45.30;97075.16;5483454;26;19995;-74
2024/04/09 01:28:24;;;;;;;33.42;6.97;;;;;;;20.73;46.01;97070.81;5485023;26;20002;-74
2024/04/09 01:30:51;;;;;;;28.55;6.93;;;;;;;20.75;45.68;97074.03;5483629;26;20010;-75
2024/04/09 01:33:17;;;;;;;22.60;5.72;;;;;;;20.64;46.17;97071.72;5484839;26;20047;-75
2024/04/09 01:35:42;;;;;;;25.38;5.53;;;;;;;20.70;46.18;97076.97;5449196;26;20003;-75
2024/04/09 01:38:08;;;;;;;24.95;6.72;;;;;;;20.72;46.02;97088.38;5470456;26;20009;-75
2024/04/09 01:40:33;;;;;;;43.53;6.63;;;;;;;20.72;46.02;97082.91;5447969;26;20010;-75
2024/04/09 01:42:59;;;;;;;26.20;6.68;;;;;;;20.52;47.37;97096.28;5449853;26;19999;-75
2024/04/09 01:45:24;;;;;;;22.70;5.75;;;;;;;20.30;48.18;97099.38;5487076;26;20465;-76
2024/04/09 01:47:50;;;;;;;26.27;5.88;;;;;;;20.45;47.06;97120.63;5486006;26;20006;-74
2024/04/09 01:50:16;;;;;;;22.40;5.95;;;;;;;20.47;47.02;97132.03;5454554;26;19998;-74
2024/04/09 01:52:53;;;;;;;28.85;6.68;;;;;;;20.51;47.31;97135.72;5489036;26;20717;-73
2024/04/09 01:55:19;;;;;;;22.63;5.85;;;;;;;20.33;47.92;97141.63;5349669;26;20027;-75
2024/04/09 01:57:45;;;;;;;26.70;5.20;;;;;;;20.28;47.86;97123.50;5382430;26;20000;-75
2024/04/09 02:00:19;;;;;;;23.05;5.90;;;;;;;20.26;47.61;97124.97;5381512;26;20073;-75
2024/04/09 02:02:47;;;;;;;28.33;6.07;;;;;;;20.13;48.22;97117.78;5383877;26;20036;-75
2024/04/09 02:05:13;;;;;;;30.05;5.55;;;;;;;20.04;48.73;97112.41;5376617;26;20005;-75
2024/04/09 02:07:40;;;;;;;21.45;5.70;;;;;;;19.99;49.56;97137.19;5375031;26;20094;-75
2024/04/09 02:10:05;;;;;;;25.73;5.97;;;;;;;19.89;49.31;97134.81;5381825;26;20490;-75
2024/04/09 02:12:31;;;;;;;21.73;6.22;;;;;;;19.84;49.43;97151.41;5353683;26;20051;-76
2024/04/09 02:14:57;;;;;;;19.45;5.88;;;;;;;19.62;50.28;97132.56;5384935;26;20004;-77
2024/04/09 02:17:22;;;;;;;24.05;5.07;;;;;;;19.67;49.97;97135.13;5325136;26;20100;-77
2024/04/09 02:19:48;;;;;;;20.45;5.18;;;;;;;19.53;49.72;97118.16;5352285;26;20008;-77
2024/04/09 02:22:13;;;;;;;27.00;6.45;;;;;;;19.30;51.14;97110.16;5366358;26;20073;-77
2024/04/09 02:24:38;;;;;;;26.33;6.53;;;;;;;19.36;52.01;97145.50;5352844;26;20010;-78
2024/04/09 02:27:04;;;;;;;21.63;5.72;;;;;;;19.34;52.47;97143.09;5351612;26;20320;-77
2024/04/09 02:29:30;;;;;;;21.15;5.85;;;;;;;19.27;52.51;97134.59;5373936;26;20567;-77
2024/04/09 02:31:55;;;;;;;23.00;5.45;;;;;;;19.17;52.90;97135.75;5348427;26;20026;-77
2024/04/09 02:34:25;;;;;;;27.90;6.18;;;;;;;19.09;53.14;97135.78;5372867;26;20001;-77
2024/04/09 02:36:51;;;;;;;26.83;5.50;;;;;;;19.05;53.41;97126.59;5340298;26;20450;-79
2024/04/09 02:39:16;;;;;;;20.65;5.97;;;;;;;18.95;53.44;97130.47;5368316;26;20048;-76
2024/04/09 02:41:42;;;;;;;24.17;5.93;;;;;;;18.76;54.90;97145.63;5379685;26;20135;-77
2024/04/09 02:44:07;;;;;;;24.27;5.97;;;;;;;18.45;55.51;97132.13;5351581;26;19996;-77
2024/04/09 02:46:33;;;;;;;25.23;6.53;;;;;;;18.49;55.19;97127.66;5353015;26;20080;-76
2024/04/09 02:48:59;;;;;;;31.73;6.60;;;;;;;18.54;55.49;97135.66;5379554;26;20005;-77
2024/04/09 02:51:25;;;;;;;25.58;5.68;;;;;;;18.46;55.88;97137.25;5375894;26;20028;-77
2024/04/09 02:53:50;;;;;;;23.05;5.78;;;;;;;18.43;56.13;97134.38;5378329;26;20004;-78
2024/04/09 02:56:15;;;;;;;26.48;6.00;;;;;;;18.29;56.78;97120.91;5352903;26;20000;-77
2024/04/09 02:58:41;;;;;;;20.67;5.72;;;;;;;18.27;56.80;97131.31;5352797;26;20470;-78
2024/04/09 03:01:08;;;;;;;25.88;6.38;;;;;;;18.25;57.55;97130.03;5324419;26;19993;-78
2024/04/09 03:03:35;;;;;;;21.50;5.70;;;;;;;18.17;57.76;97119.91;5349258;26;19997;-75
2024/04/09 03:06:11;;;;;;;18.88;5.55;;;;;;;18.08;57.45;97113.66;5381580;26;20008;-76
2024/04/09 03:08:37;;;;;;;27.55;6.40;;;;;;;18.01;57.99;97110.59;5389778;26;20004;-76
2024/04/09 03:11:12;;;;;;;24.20;5.63;;;;;;;18.00;57.96;97109.78;5384375;26;20012;-76
2024/04/09 03:13:39;;;;;;;19.55;5.95;;;;;;;17.88;58.13;97098.69;5353871;26;20000;-77
2024/04/09 03:16:15;;;;;;;22.98;5.53;;;;;;;17.80;58.13;97100.31;5382868;26;20005;-76
2024/04/09 03:18:41;;;;;;;22.42;6.10;;;;;;;17.78;58.20;97105.25;5381881;26;20388;-76
2024/04/09 03:21:06;;;;;;;18.92;5.40;;;;;;;17.75;58.68;97114.06;5411079;26;20000;-77
2024/04/09 03:23:31;;;;;;;27.08;6.22;;;;;;;17.72;58.24;97114.69;5381907;26;20004;-76
2024/04/09 03:25:57;;;;;;;22.33;6.10;;;;;;;17.66;58.71;97107.81;5382131;26;20010;-77
2024/04/09 03:28:22;;;;;;;18.83;5.78;;;;;;;17.76;58.10;97125.78;5324981;26;20012;-76
2024/04/09 03:30:58;;;;;;;21.52;5.93;;;;;;;17.70;57.86;97116.94;5381079;26;20000;-76
2024/04/09 03:33:23;;;;;;;;;;;;;;;17.48;58.85;97108.81;5383463;26;19996;-75
2024/04/09 03:35:53;;;;;;;23.77;6.23;;;;;;;17.50;58.92;97101.16;5383080;26;19934;-76
2024/04/09 03:38:18;;;;;;;19.77;6.20;;;;;;;17.47;58.98;97098.25;5382453;26;20028;-76
2024/04/09 03:40:57;;;;;;;19.10;6.07;;;;;;;17.48;58.99;97124.38;5324041;26;20367;-76
2024/04/09 03:43:23;;;;;;;21.55;6.20;;;;;;;17.43;59.44;97110.91;5340673;26;20014;-76
2024/04/09 03:46:07;;;;;;;18.92;6.82;;;;;;;17.44;59.45;97109.75;5384230;26;20000;-76
2024/04/09 03:48:33;;;;;;;24.15;6.78;;;;;;;17.21;59.72;97084.53;5369137;26;20019;-76
2024/04/09 03:50:59;;;;;;;21.58;6.20;;;;;;;17.31;60.13;97102.50;5352408;26;20471;-76
2024/04/09 03:53:25;;;;;;;24.27;6.75;;;;;;;17.31;59.98;97106.06;5379918;26;20003;-76
2024/04/09 03:55:54;;;;;;;22.90;6.50;;;;;;;17.30;60.53;97118.03;5352732;26;20011;-76
2024/04/09 03:58:20;;;;;;;19.30;6.43;;;;;;;17.18;60.26;97109.66;5349727;26;20008;-77
2024/04/09 04:01:02;;;;;;;20.88;5.90;;;;;;;17.18;60.44;97115.09;5348743;26;20010;-77
2024/04/09 04:03:29;;;;;;;24.33;6.97;;;;;;;17.19;61.03;97122.16;5346982;26;20475;-76
2024/04/09 04:05:58;;;;;;;20.17;6.00;;;;;;;17.14;60.45;97119.56;5375550;26;20001;-76
2024/04/09 04:08:28;;;;;;;22.95;6.43;;;;;;;17.19;60.87;97127.59;5378775;26;20078;-76
2024/04/09 04:10:59;;;;;;;23.50;6.97;;;;;;;17.10;61.66;97111.25;5369431;26;20019;-76
2024/04/09 04:13:26;;;;;;;17.48;6.20;;;;;;;16.98;61.23;97104.75;5347968;26;20055;-75
2024/04/09 04:16:04;;;;;;;21.95;6.85;;;;;;;17.08;61.03;97120.81;5345143;26;20005;-75
2024/04/09 04:18:36;;;;;;;29.60;7.07;;;;;;;17.03;61.17;97118.22;5383467;26;20011;-77
2024/04/09 04:21:03;;;;;;;24.02;6.72;;;;;;;16.98;61.51;97111.00;5378771;26;20003;-77
2024/04/09 04:23:28;;;;;;;30.58;6.97;;;;;;;17.08;61.48;97131.72;5378750;26;20051;-77
2024/04/09 04:26:03;;;;;;;28.50;6.68;;;;;;;17.10;61.84;97126.75;5349335;26;20028;-77
2024/04/09 04:28:37;;;;;;;24.50;6.93;;;;;;;17.03;62.04;97120.94;5405198;26;20001;-77
2024/04/09 04:31:15;;;;;;;26.70;6.60;;;;;;;16.95;62.27;97118.97;5378964;26;20009;-77
2024/04/09 04:33:41;;;;;;;25.88;6.03;;;;;;;16.97;62.73;97125.72;5345367;26;20456;-77
2024/04/09 04:36:08;;;;;;;29.40;7.45;;;;;;;16.72;62.83;97082.03;5378179;26;20595;-77
2024/04/09 04:38:34;;;;;;;26.05;7.00;;;;;;;16.82;62.77;97095.41;5361050;26;20012;-77
2024/04/09 04:41:01;;;;;;;27.73;6.95;;;;;;;16.91;63.00;97105.22;5380028;26;20000;-77
2024/04/09 04:43:26;;;;;;;27.20;6.95;;;;;;;16.80;62.63;97103.06;5327523;26;20001;-75
2024/04/09 04:45:52;;;;;;;28.52;7.60;;;;;;;16.75;62.46;97105.91;5362379;26;20004;-77
2024/04/09 04:48:18;;;;;;;27.02;6.47;;;;;;;16.85;62.77;97138.28;5319492;26;20016;-77
2024/04/09 04:50:45;;;;;;;23.50;7.18;;;;;;;16.72;62.71;97133.72;5378266;26;20001;-77
2024/04/09 04:53:11;;;;;;;26.83;7.70;;;;;;;16.62;62.89;97136.69;5321797;26;20819;-76
2024/04/09 04:55:37;;;;;;;27.23;7.63;;;;;;;16.64;62.93;97137.19;5334043;26;20012;-77
2024/04/09 04:58:03;;;;;;;25.42;7.00;;;;;;;16.71;63.30;97145.72;5345423;26;20015;-76
2024/04/09 05:00:28;;;;;;;27.10;6.47;;;;;;;16.62;63.50;97133.97;5353806;26;20470;-78
2024/04/09 05:02:54;;;;;;;24.00;7.13;;;;;;;16.75;63.48;97160.28;5354660;26;19996;-77
2024/04/09 05:05:20;;;;;;;24.88;7.25;;;;;;;16.52;63.28;97116.78;5413224;26;20068;-77
2024/04/09 05:07:48;;;;;;;26.10;7.35;;;;;;;16.71;63.52;97149.22;5413163;26;20007;-77
2024/04/09 05:10:13;;;;;;;21.85;6.93;;;;;;;16.65;64.07;97133.34;5382808;26;20006;-74
2024/04/09 05:12:46;;;;;;;23.67;6.85;;;;;;;16.70;63.74;97141.38;5342714;26;19995;-78
2024/04/09 05:15:12;;;;;;;30.85;6.82;;;;;;;16.59;63.86;97125.28;5369664;26;20004;-77
2024/04/09 05:17:38;;;;;;;27.15;7.55;;;;;;;16.73;63.92;97147.00;5349261;26;20041;-79
2024/04/09 05:20:09;;;;;;;33.95;9.45;;;;;;;16.58;64.55;97139.22;5333514;26;20000;-77
2024/04/09 05:22:45;;;;;;;35.50;14.88;;;;;;;16.62;63.93;97150.28;5348611;26;20016;-77
2024/04/09 05:25:11;;;;;;;;;;;;;;;16.56;64.43;97152.31;5372412;26;20073;-77
2024/04/09 05:27:36;;;;;;;45.03;22.47;;;;;;;16.47;63.96;97138.63;5381027;26;19925;-77
2024/04/09 05:30:02;;;;;;;42.83;15.98;;;;;;;16.67;63.58;97169.16;5384438;26;20014;-77
2024/04/09 05:32:28;;;;;;;31.85;11.63;;;;;;;16.55;63.66;97159.66;5357574;26;19999;-77
2024/04/09 05:34:54;;;;;;;45.30;22.73;;;;;;;16.59;64.15;97151.69;5387058;26;19999;-77
2024/04/09 05:37:20;;;;;;;51.03;23.35;;;;;;;16.64;63.88;97142.63;5357227;26;19995;-77
2024/04/09 05:39:46;;;;;;;43.90;21.75;;;;;;;16.80;64.09;97162.88;5372790;26;20010;-77
2024/04/09 05:42:13;;;;;;;38.55;16.77;;;;;;;16.95;64.32;97171.47;5387381;26;20039;-77
2024/04/09 05:44:39;;;;;;;26.38;8.23;;;;;;;16.84;63.75;97159.25;5357577;26;20505;-76
2024/04/09 05:47:05;;;;;;;25.52;7.40;;;;;;;16.73;63.79;97140.75;5386913;26;20007;-77
2024/04/09 05:49:30;;;;;;;25.55;9.13;;;;;;;16.87;64.03;97157.81;5369264;26;20019;-76
2024/04/09 05:51:56;;;;;;;28.30;11.52;;;;;;;17.03;64.36;97172.63;5355300;26;20003;-77
2024/04/09 05:54:21;;;;;;;21.73;8.27;;;;;;;17.13;63.03;97166.91;5387163;26;20036;-77
2024/04/09 05:56:47;;;;;;;24.50;6.50;;;;;;;17.11;62.13;97155.56;5372044;26;20006;-77
2024/04/09 05:59:13;;;;;;;25.40;6.90;;;;;;;17.40;62.06;97177.66;5373748;26;19996;-76
2024/04/09 06:01:38;;;;;;;21.83;6.40;;;;;;;17.49;61.50;97189.38;5380361;26;20005;-77
2024/04/09 06:04:04;;;;;;;26.60;7.03;;;;;;;17.61;60.40;97184.19;5365743;26;20499;-77
2024/04/09 06:06:30;;;;;;;26.30;7.10;;;;;;;17.75;59.50;97190.34;5348859;26;20000;-78
2024/04/09 06:08:55;;;;;;;24.02;7.18;;;;;;;17.80;59.20;97178.50;5342370;26;20000;-78
2024/04/09 06:11:21;;;;;;;24.90;6.65;;;;;;;17.82;58.38;97166.16;5356571;26;20007;-77
2024/04/09 06:13:46;;;;;;;22.65;6.68;;;;;;;17.94;58.21;97182.72;5356848;26;20073;-77
2024/04/09 06:16:12;;;;;;;23.48;6.43;;;;;;;18.09;58.06;97199.72;5386254;26;20019;-77
2024/04/09 06:18:37;;;;;;;27.23;7.00;;;;;;;17.99;57.94;97172.78;5380789;26;20448;-77
2024/04/09 06:21:03;;;;;;;22.58;6.30;;;;;;;18.05;58.58;97182.41;5354551;26;20409;-77
2024/04/09 06:23:28;;;;;;;19.42;6.10;;;;;;;18.28;58.42;97208.41;5387852;26;20373;-77
2024/04/09 06:25:55;;;;;;;22.50;7.30;;;;;;;18.27;57.83;97201.38;5386504;26;20003;-77
2024/04/09 06:28:20;;;;;;;23.02;6.05;;;;;;;18.36;57.72;97210.38;5387023;26;20014;-77
2024/04/09 06:30:46;;;;;;;25.73;6.68;;;;;;;18.46;57.58;97219.06;5355655;26;20351;-77
2024/04/09 06:33:11;;;;;;;30.10;6.68;;;;;;;18.57;56.34;97220.38;5380701;26;20000;-77
2024/04/09 06:35:37;;;;;;;22.20;5.90;;;;;;;18.35;56.56;97214.22;5363986;26;20080;-77
2024/04/09 06:38:03;;;;;;;28.27;6.68;;;;;;;18.42;57.66;97225.44;5385979;26;20000;-77
2024/04/09 06:40:30;;;;;;;27.65;6.60;;;;;;;18.65;57.40;97235.13;5355773;26;20022;-78
2024/04/09 06:42:56;;;;;;;20.13;6.15;;;;;;;18.52;57.43;97236.09;5386246;26;20014;-77
2024/04/09 06:45:22;;;;;;;23.63;6.80;;;;;;;18.63;58.01;97242.84;5384546;26;20003;-77
2024/04/09 06:47:47;;;;;;;26.30;7.28;;;;;;;18.37;59.00;97225.59;5357084;26;20018;-77
2024/04/09 06:50:15;;;;;;;37.78;7.60;;;;;;;18.49;59.65;97256.59;5382705;26;20000;-77
2024/04/09 06:52:41;;;;;;;24.55;7.80;;;;;;;18.40;59.94;97233.94;5357103;26;19995;-77
2024/04/09 06:55:07;;;;;;;23.80;7.63;;;;;;;18.55;60.34;97252.59;5361532;26;20000;-77
2024/04/09 06:57:33;;;;;;;21.60;6.90;;;;;;;18.64;59.71;97249.91;5379357;26;20000;-77
2024/04/09 06:59:59;;;;;;;28.42;7.05;;;;;;;18.76;59.85;97269.19;5414932;26;20354;-78
2024/04/09 07:02:25;;;;;;;28.00;7.40;;;;;;;18.78;59.46;97253.28;5356405;26;19999;-77
2024/04/09 07:04:50;;;;;;;28.33;8.15;;;;;;;18.81;59.79;97252.63;5414944;26;20017;-77
2024/04/09 07:07:15;;;;;;;27.80;7.00;;;;;;;18.80;59.50;97252.97;5355980;26;20478;-77
2024/04/09 07:09:41;;;;;;;24.58;7.63;;;;;;;18.94;59.69;97284.44;5355307;26;20003;-77
2024/04/09 07:12:07;;;;;;;21.63;7.15;;;;;;;18.84;60.25;97286.66;5382295;26;20332;-77
2024/04/09 07:14:32;;;;;;;27.00;6.78;;;;;;;18.69;60.15;97247.03;5391594;26;20003;-77
2024/04/09 07:16:58;;;;;;;24.48;7.43;;;;;;;18.92;60.07;97303.06;5385372;26;20065;-77
2024/04/09 07:19:23;;;;;;;25.30;7.57;;;;;;;18.72;59.86;97284.56;5352929;26;20014;-77
2024/04/09 07:21:49;;;;;;;30.67;8.10;;;;;;;18.81;59.50;97288.09;5378614;26;19999;-77
2024/04/09 07:24:14;;;;;;;24.50;6.82;;;;;;;18.78;59.18;97280.56;5385062;26;20340;-77
2024/04/09 07:26:40;;;;;;;29.05;7.78;;;;;;;18.95;59.14;97304.34;5327127;26;20399;-77
2024/04/09 07:29:05;;;;;;;28.02;7.57;;;;;;;18.99;58.86;97308.03;5355766;26;19996;-77
2024/04/09 07:31:31;;;;;;;32.10;7.97;;;;;;;18.91;58.63;97304.16;5415552;26;20450;-77
2024/04/09 07:33:56;;;;;;;18.23;7.00;;;;;;;18.95;58.91;97316.03;5384584;26;20339;-77
2024/04/09 07:36:22;;;;;;;30.80;7.65;;;;;;;18.79;58.85;97271.25;5384208;26;20003;-77
2024/04/09 07:38:47;;;;;;;29.42;7.60;;;;;;;18.94;59.25;97316.38;5415611;26;20000;-77
2024/04/09 07:41:13;;;;;;;32.55;7.80;;;;;;;19.05;59.69;97326.66;5415040;26;19995;-77
2024/04/09 07:43:39;;;;;;;24.85;7.30;;;;;;;19.04;59.50;97325.03;5364893;26;20019;-77
2024/04/09 07:46:08;;;;;;;24.83;7.32;;;;;;;19.03;59.31;97318.00;5382291;26;20000;-77
2024/04/09 07:48:33;;;;;;;23.48;6.80;;;;;;;19.13;58.95;97320.41;5356087;26;20081;-77
2024/04/09 07:51:00;;;;;;;24.92;7.35;;;;;;;19.12;58.82;97316.06;5381232;26;20012;-77
2024/04/09 07:53:25;;;;;;;30.52;7.40;;;;;;;19.21;58.87;97307.88;5353711;26;20000;-77
2024/04/09 07:55:52;;;;;;;32.85;6.50;;;;;;;19.23;58.40;97311.88;5389897;21;19999;-75
2024/04/09 07:58:17;;;;;;;26.17;7.03;;;;;;;19.29;58.49;97309.81;5416868;26;20443;-75
2024/04/09 08:00:43;;;;;;;29.45;7.00;;;;;;;19.30;58.22;97311.38;5371545;26;19991;-76
2024/04/09 08:03:09;;;;;;;32.38;7.47;;;;;;;19.44;58.23;97338.59;5441932;26;20018;-75
2024/04/09 08:05:36;;;;;;;26.05;6.90;;;;;;;19.48;57.84;97348.53;5395806;26;19991;-74
2024/04/09 08:08:01;;;;;;;28.90;7.15;;;;;;;19.58;58.68;97355.59;5412747;26;19995;-75
2024/04/09 08:10:26;;;;;;;22.30;7.00;;;;;;;19.59;58.68;97340.81;5370215;26;19998;-75
2024/04/09 08:12:56;;;;;;;25.13;7.22;;;;;;;19.74;58.11;97354.75;5419502;26;19995;-74
2024/04/09 08:15:22;;;;;;;26.45;7.30;;;;;;;19.68;57.57;97349.78;5361450;26;20000;-74
2024/04/09 08:17:48;;;;;;;29.30;7.43;;;;;;;19.86;57.22;97360.38;5427013;26;20089;-74
2024/04/09 08:20:15;;;;;;;26.70;6.72;;;;;;;19.81;57.48;97348.81;5372503;26;20003;-74
2024/04/09 08:22:41;;;;;;;22.80;6.57;;;;;;;19.94;57.37;97364.22;5442652;26;19999;-76
2024/04/09 08:25:10;;;;;;;29.15;6.80;;;;;;;20.04;57.72;97385.75;5400076;26;20015;-75
2024/04/09 08:27:40;;;;;;;22.38;6.93;;;;;;;20.14;56.23;97384.59;5420737;26;20014;-75
2024/04/09 08:30:09;;;;;;;27.90;6.00;;;;;;;20.25;56.08;97399.56;5423042;26;20011;-75
2024/04/09 08:32:34;;;;;;;27.38;6.95;;;;;;;20.36;55.85;97403.53;5417035;26;20015;-74
2024/04/09 08:35:03;;;;;;;29.85;6.18;;;;;;;20.27;54.83;97395.38;5430978;26;20022;-73
2024/04/09 08:37:29;;;;;;;31.35;6.97;;;;;;;20.41;54.27;97406.91;5386455;26;20101;-77
2024/04/09 08:39:58;;;;;;;23.50;6.32;;;;;;;20.54;54.45;97414.09;5392194;26;20018;-74
2024/04/09 08:42:24;;;;;;;25.25;6.43;;;;;;;20.58;54.08;97411.53;5411967;26;20011;-74
2024/04/09 08:44:50;;;;;;;29.80;6.75;;;;;;;20.71;54.71;97401.47;5398837;26;20002;-74
2024/04/09 08:47:19;;;;;;;27.75;6.68;;;;;;;20.82;53.26;97400.00;5407807;26;20474;-74
2024/04/09 08:49:45;;;;;;;23.45;6.40;;;;;;;20.86;52.90;97400.94;5428682;26;20010;-74
2024/04/09 08:52:11;;;;;;;26.00;6.70;;;;;;;21.00;52.18;97412.44;5407811;26;20004;-75
2024/04/09 08:54:37;;;;;;;24.65;6.35;;;;;;;20.95;53.05;97399.75;5393691;26;20097;-74
2024/04/09 08:57:05;;;;;;;27.85;5.95;;;;;;;21.10;54.15;97423.03;5393788;26;20410;-76
2024/04/09 08:59:30;;;;;;;24.50;5.78;;;;;;;20.88;50.82;97401.41;5387756;26;20010;-74
2024/04/09 09:02:02;;;;;;;24.23;6.22;;;;;;;21.12;51.63;97426.28;5416793;26;20014;-75
2024/04/09 09:04:34;;;;;;;26.58;6.20;;;;;;;21.27;51.27;97420.19;5345866;26;20004;-74
2024/04/09 09:06:59;;;;;;;22.23;6.28;;;;;;;21.33;49.97;97410.66;5425440;26;20003;-74
2024/04/09 09:09:27;;;;;;;21.73;5.57;;;;;;;21.31;51.27;97402.78;5421337;26;20067;-74
2024/04/09 09:12:01;;;;;;;17.23;4.80;;;;;;;21.58;48.96;97401.44;5398914;26;20007;-75
2024/04/09 09:14:26;;;;;;;17.85;4.60;;;;;;;21.54;47.63;97395.00;5361551;26;20063;-74
2024/04/09 09:16:51;;;;;;;16.90;4.32;;;;;;;21.49;47.41;97408.13;5428370;26;20012;-74
2024/04/09 09:19:17;;;;;;;19.60;4.22;;;;;;;21.55;47.34;97418.56;5417666;26;20009;-73
2024/04/09 09:21:42;;;;;;;19.55;4.15;;;;;;;21.49;47.87;97419.91;5362340;26;20070;-74
2024/04/09 09:24:08;;;;;;;21.75;4.53;;;;;;;21.80;47.31;97442.22;5405198;26;20122;-74
2024/04/09 09:26:33;;;;;;;18.80;3.75;;;;;;;21.84;46.95;97465.09;5444166;26;20022;-75
2024/04/09 09:29:07;;;;;;;16.48;4.05;;;;;;;21.69;47.01;97476.66;5427933;26;20487;-74
2024/04/09 09:31:32;;;;;;;16.40;4.47;;;;;;;21.48;47.39;97478.56;5412567;26;20459;-74
2024/04/09 09:33:59;;;;;;;20.77;4.78;;;;;;;21.63;46.49;97474.44;5430855;26;20010;-74
2024/04/09 09:36:25;;;;;;;22.52;4.80;;;;;;;21.24;47.13;97481.13;5407123;26;20018;-74
2024/04/09 09:38:50;;;;;;;16.83;4.00;;;;;;;21.24;47.39;97478.38;5386209;26;20354;-74
2024/04/09 09:41:16;;;;;;;18.75;4.82;;;;;;;21.24;47.76;97483.84;5395945;26;20341;-74
2024/04/09 09:43:42;;;;;;;18.25;4.28;;;;;;;21.16;48.32;97473.75;5388655;26;20015;-74
2024/04/09 09:46:12;;;;;;;15.05;3.80;;;;;;;21.29;48.45;97469.97;5362181;26;20006;-74
2024/04/09 09:48:38;;;;;;;17.23;4.60;;;;;;;21.40;48.00;97465.72;5433008;26;20083;-74
2024/04/09 09:51:04;;;;;;;18.33;4.45;;;;;;;21.33;48.18;97459.97;5411802;26;20475;-74
2024/04/09 09:53:30;;;;;;;22.05;4.65;;;;;;;21.25;47.97;97483.53;5378498;26;19999;-74
2024/04/09 09:55:56;;;;;;;17.92;3.95;;;;;;;21.36;49.46;97503.13;5425222;26;20483;-74
2024/04/09 09:58:25;;;;;;;19.85;4.53;;;;;;;21.41;48.99;97472.81;5471879;26;20458;-75
2024/04/09 10:00:52;;;;;;;16.40;3.85;;;;;;;21.53;49.37;97497.56;5417135;26;20324;-75
2024/04/09 10:03:18;;;;;;;16.88;3.58;;;;;;;21.59;49.07;97501.69;5412485;26;20015;-75
2024/04/09 10:05:45;;;;;;;15.82;4.15;;;;;;;21.43;48.53;97508.09;5435709;26;20105;-75
2024/04/09 10:08:17;;;;;;;14.63;3.85;;;;;;;21.51;48.61;97499.03;5407684;26;20006;-74
2024/04/09 10:10:43;;;;;;;15.55;4.40;;;;;;;21.39;49.05;97507.16;5446423;26;20002;-74
2024/04/09 10:13:08;;;;;;;16.30;3.80;;;;;;;21.55;48.37;97495.28;5422497;26;20067;-75
2024/04/09 10:15:34;;;;;;;20.48;5.03;;;;;;;21.56;48.15;97499.66;5439931;26;20017;-75
2024/04/09 10:18:06;;;;;;;12.75;3.55;;;;;;;21.66;47.74;97512.94;5405502;26;20075;-75
2024/04/09 10:20:35;;;;;;;17.10;3.75;;;;;;;21.65;47.92;97533.28;5408005;26;20008;-74
2024/04/09 10:23:02;;;;;;;15.40;3.55;;;;;;;21.43;49.58;97547.25;5379286;26;20018;-76
2024/04/09 10:25:39;;;;;;;14.65;4.22;;;;;;;21.34;50.49;97566.47;5405214;26;20012;-76
2024/04/09 10:28:29;;;;;;;11.55;3.85;;;;;;;21.05;51.02;97562.91;5430304;26;20489;-75
2024/04/09 10:30:59;;;;;;;14.18;3.55;;;;;;;21.15;51.07;97570.72;5406062;26;20014;-74
2024/04/09 10:33:29;;;;;;;13.68;3.45;;;;;;;20.78;51.33;97568.72;5439820;26;20000;-75
2024/04/09 10:35:56;;;;;;;9.43;2.65;;;;;;;20.79;51.81;97564.88;5397755;26;20014;-74
2024/04/09 10:38:24;;;;;;;13.63;3.03;;;;;;;20.74;52.28;97546.69;5412097;26;20013;-74
2024/04/09 10:40:49;;;;;;;12.88;3.10;;;;;;;20.82;52.47;97548.59;5424939;26;20007;-74
2024/04/09 10:43:15;;;;;;;12.82;2.65;;;;;;;20.80;51.83;97560.97;5438216;26;20009;-75
2024/04/09 10:45:41;;;;;;;10.68;3.15;;;;;;;20.73;52.90;97560.69;5408990;26;19999;-75
2024/04/09 10:48:07;;;;;;;8.07;2.85;;;;;;;20.83;53.67;97566.63;5425930;26;20532;-75
2024/04/09 10:50:33;;;;;;;13.15;3.03;;;;;;;20.75;53.29;97556.50;5469797;26;20007;-76
2024/04/09 10:52:59;;;;;;;13.18;3.03;;;;;;;20.54;53.55;97559.09;5421717;26;20019;-75
2024/04/09 10:55:24;;;;;;;11.38;2.90;;;;;;;20.52;53.89;97574.22;5432955;26;20014;-74
2024/04/09 10:57:53;;;;;;;10.68;2.90;;;;;;;20.51;53.89;97598.03;5415294;26;20013;-74
2024/04/09 11:00:20;;;;;;;11.07;2.90;;;;;;;20.46;53.65;97592.75;5399898;26;20018;-75
2024/04/09 11:02:46;;;;;;;13.07;3.10;;;;;;;20.33;53.25;97601.91;5443039;26;20005;-75
2024/04/09 11:05:13;;;;;;;13.27;2.95;;;;;;;20.22;54.63;97611.56;5413885;26;20031;-75
2024/04/09 11:07:39;;;;;;;14.02;2.67;;;;;;;20.07;54.83;97603.78;5418616;26;20010;-75
2024/04/09 11:10:06;;;;;;;9.50;2.75;;;;;;;20.07;54.14;97598.31;5431957;26;20014;-75
2024/04/09 11:12:35;;;;;;;9.18;2.72;;;;;;;19.84;54.42;97616.78;5445719;26;20002;-75
2024/04/09 11:15:00;;;;;;;9.50;2.60;;;;;;;19.94;55.43;97621.16;5433183;26;20354;-75
2024/04/09 11:17:26;;;;;;;7.65;2.65;;;;;;;19.82;54.73;97623.69;5432214;26;20002;-75
2024/04/09 11:19:52;;;;;;;12.73;2.83;;;;;;;19.85;55.25;97612.94;5434527;26;19999;-75
2024/04/09 11:22:17;;;;;;;11.10;2.58;;;;;;;19.65;55.49;97634.59;5459664;26;20477;-75
2024/04/09 11:24:45;;;;;;;9.52;2.67;;;;;;;19.70;55.34;97642.63;5435922;26;20017;-75